Josephine, Texas
Current Conditions -  °F | °C
As of 7:15 PM on Sunday 21 Dec 2014 (Local Time) from KF46 Reporting Station
Overcast Overcast  
Wind Chill: 46°   Ceiling: 1200
Heat Index: 50°   Visibility: 10mi
Dew Point: 47°   Wind: 9mph
Humidity: 90%   Direction: 150°SSE
Pressure: 29.83"   Gusts: NA
Location:  33.06°N, 96.31°W
Report Text: KF46 220115Z AUTO 15008KT 10SM OVC012 10/08 A2983 RMK AO2 T00980082
Loading
Personal Weather Stations






























Interactive Weather Map New forecast layout! Learn more

10-Day Weather Forecast

Advertisements
Track Severe Weather on mobile